PPLGT UUDD-LOWW
Flight info
| Callsign | PPLGT |
|---|---|
| Flight time | N/A |
| Altitude | 36000 |
| Route | SOTOG4S SOTOG L736 GODBI L856 RAVOK P851 VALOL M984 LETKI/N0432F360 M984 KOTEK/N0360F240 M984 TUSIN DCT UPLAV DCT MIKOV MIKOV8W |
| Aircraft | B738/M-SDE2E3FGHIRWXY/LB1 |
Departure
| Time | N/A |
|---|---|
| Airport | Domodedovo International Airport (UUDD) |
Arrival
| Time | 2026-05-03 22:17 |
|---|---|
| Airport | Vienna International Airport (LOWW) |
| Time | Latitude | Longitude | Altitude | Speed | Heading |
|---|---|---|---|---|---|
| 2026-05-03 20:15 | 54.73818 | 35.29851 | 28138 ft | 445 kts | 265° |
| 2026-05-03 20:15 | 54.73592 | 35.24553 | 28810 ft | 438 kts | 261° |
| 2026-05-03 20:15 | 54.73092 | 35.19332 | 28980 ft | 443 kts | 256° |
| 2026-05-03 20:15 | 54.72331 | 35.14139 | 29180 ft | 447 kts | 252° |
| 2026-05-03 20:16 | 54.71443 | 35.08962 | 29432 ft | 449 kts | 251° |
| 2026-05-03 20:16 | 54.70517 | 35.03836 | 29968 ft | 445 kts | 251° |
| 2026-05-03 20:16 | 54.69595 | 34.98758 | 30527 ft | 440 kts | 252° |
| 2026-05-03 20:16 | 54.68675 | 34.93708 | 30926 ft | 440 kts | 252° |
| 2026-05-03 20:17 | 54.67752 | 34.88653 | 31178 ft | 443 kts | 251° |
| 2026-05-03 20:17 | 54.66821 | 34.83571 | 31471 ft | 444 kts | 251° |
| 2026-05-03 20:17 | 54.65895 | 34.78529 | 32047 ft | 437 kts | 251° |
| 2026-05-03 20:17 | 54.64977 | 34.73544 | 32487 ft | 435 kts | 251° |
| 2026-05-03 20:18 | 54.64057 | 34.68563 | 32814 ft | 435 kts | 251° |
| 2026-05-03 20:18 | 54.63141 | 34.63565 | 33067 ft | 437 kts | 251° |
| 2026-05-03 20:18 | 54.62248 | 34.58553 | 33418 ft | 436 kts | 251° |
| 2026-05-03 20:18 | 54.61359 | 34.53620 | 33805 ft | 434 kts | 252° |
| 2026-05-03 20:19 | 54.60456 | 34.48645 | 34166 ft | 433 kts | 252° |
| 2026-05-03 20:19 | 54.59549 | 34.43687 | 34471 ft | 433 kts | 251° |
| 2026-05-03 20:19 | 54.58635 | 34.38724 | 34699 ft | 435 kts | 251° |
| 2026-05-03 20:19 | 54.57718 | 34.33766 | 35063 ft | 433 kts | 251° |
| 2026-05-03 20:20 | 54.56803 | 34.28839 | 35443 ft | 430 kts | 252° |
| 2026-05-03 20:20 | 54.55889 | 34.23931 | 35775 ft | 429 kts | 252° |
| 2026-05-03 20:20 | 54.54968 | 34.19009 | 35869 ft | 433 kts | 253° |
| 2026-05-03 20:21 | 54.53111 | 34.09124 | 35883 ft | 434 kts | 253° |
| 2026-05-03 20:21 | 54.51293 | 33.99309 | 35885 ft | 432 kts | 253° |
| 2026-05-03 20:22 | 54.49445 | 33.89505 | 35889 ft | 430 kts | 252° |
| 2026-05-03 20:22 | 54.47565 | 33.79708 | 35881 ft | 430 kts | 252° |
| 2026-05-03 20:23 | 54.45688 | 33.70014 | 35883 ft | 430 kts | 251° |
| 2026-05-03 20:23 | 54.43789 | 33.60246 | 35873 ft | 433 kts | 255° |
| 2026-05-03 20:24 | 54.41861 | 33.50343 | 35888 ft | 440 kts | 253° |
| 2026-05-03 20:24 | 54.39906 | 33.40399 | 35888 ft | 437 kts | 253° |
| 2026-05-03 20:25 | 54.37952 | 33.30533 | 35888 ft | 436 kts | 253° |
| 2026-05-03 20:25 | 54.35995 | 33.20714 | 35893 ft | 434 kts | 252° |
| 2026-05-03 20:26 | 54.34055 | 33.11026 | 35892 ft | 433 kts | 253° |
| 2026-05-03 20:26 | 54.32081 | 33.01218 | 35897 ft | 437 kts | 252° |
| 2026-05-03 20:27 | 54.30122 | 32.91334 | 35885 ft | 440 kts | 255° |
| 2026-05-03 20:27 | 54.28145 | 32.81333 | 35890 ft | 451 kts | 255° |
| 2026-05-03 20:28 | 54.26108 | 32.71171 | 35897 ft | 449 kts | 254° |
| 2026-05-03 20:28 | 54.24062 | 32.61059 | 35895 ft | 451 kts | 254° |
| 2026-05-03 20:29 | 54.22001 | 32.50946 | 35901 ft | 453 kts | 254° |
| 2026-05-03 20:29 | 54.19915 | 32.40775 | 35902 ft | 455 kts | 254° |
| 2026-05-03 20:30 | 54.17842 | 32.30532 | 35911 ft | 461 kts | 254° |
| 2026-05-03 20:30 | 54.15715 | 32.20218 | 35906 ft | 459 kts | 254° |
| 2026-05-03 20:31 | 54.13552 | 32.09895 | 35907 ft | 465 kts | 253° |
| 2026-05-03 20:31 | 54.11347 | 31.99450 | 35910 ft | 470 kts | 253° |
| 2026-05-03 20:32 | 54.09122 | 31.88939 | 35907 ft | 472 kts | 253° |
| 2026-05-03 20:32 | 54.06890 | 31.78440 | 35913 ft | 470 kts | 253° |
| 2026-05-03 20:33 | 54.04649 | 31.67980 | 35914 ft | 472 kts | 253° |
| 2026-05-03 20:33 | 54.02386 | 31.57476 | 35920 ft | 473 kts | 253° |
| 2026-05-03 20:34 | 54.00127 | 31.47044 | 35919 ft | 473 kts | 252° |
| 2026-05-03 20:34 | 53.97860 | 31.36612 | 35950 ft | 461 kts | 252° |
| 2026-05-03 20:34 | 53.96804 | 31.31536 | 35964 ft | 449 kts | 253° |
| 2026-05-03 20:35 | 53.95772 | 31.26587 | 35974 ft | 440 kts | 251° |
| 2026-05-03 20:35 | 53.93689 | 31.16943 | 35981 ft | 430 kts | 251° |
| 2026-05-03 20:36 | 53.91585 | 31.07366 | 35988 ft | 436 kts | 252° |
| 2026-05-03 20:36 | 53.89449 | 30.97722 | 35990 ft | 439 kts | 252° |
| 2026-05-03 20:37 | 53.87294 | 30.88025 | 35988 ft | 443 kts | 253° |
| 2026-05-03 20:37 | 53.85084 | 30.78142 | 35997 ft | 454 kts | 252° |
| 2026-05-03 20:38 | 53.82822 | 30.68124 | 35994 ft | 455 kts | 252° |
| 2026-05-03 20:38 | 53.80550 | 30.58122 | 35999 ft | 460 kts | 252° |
| 2026-05-03 20:39 | 53.78247 | 30.48032 | 35999 ft | 458 kts | 252° |
| 2026-05-03 20:39 | 53.75948 | 30.37998 | 35999 ft | 458 kts | 252° |
| 2026-05-03 20:40 | 53.73647 | 30.27949 | 35999 ft | 458 kts | 253° |
| 2026-05-03 20:40 | 53.71433 | 30.17884 | 36000 ft | 459 kts | 252° |
| 2026-05-03 20:41 | 53.69120 | 30.07801 | 36007 ft | 460 kts | 252° |
| 2026-05-03 20:41 | 53.66797 | 29.97812 | 36017 ft | 453 kts | 246° |
| 2026-05-03 20:42 | 53.64519 | 29.88098 | 36022 ft | 439 kts | 246° |
| 2026-05-03 20:42 | 53.62290 | 29.78613 | 36023 ft | 433 kts | 246° |
| 2026-05-03 20:43 | 53.60079 | 29.69091 | 36024 ft | 435 kts | 246° |
| 2026-05-03 20:43 | 53.58242 | 29.61204 | 36012 ft | 438 kts | 252° |
| 2026-05-03 20:44 | 53.56005 | 29.51740 | 36023 ft | 432 kts | 246° |
| 2026-05-03 20:44 | 53.53752 | 29.42298 | 36011 ft | 436 kts | 250° |
| 2026-05-03 20:45 | 53.51469 | 29.32776 | 35995 ft | 444 kts | 251° |
| 2026-05-03 20:45 | 53.49149 | 29.23106 | 35998 ft | 445 kts | 250° |
| 2026-05-03 20:46 | 53.46861 | 29.13579 | 35990 ft | 440 kts | 251° |
| 2026-05-03 20:46 | 53.44582 | 29.03966 | 35999 ft | 444 kts | 249° |
| 2026-05-03 20:47 | 53.42260 | 28.94378 | 35986 ft | 448 kts | 251° |
| 2026-05-03 20:47 | 53.39864 | 28.84581 | 35993 ft | 460 kts | 250° |
| 2026-05-03 20:48 | 53.37418 | 28.74627 | 35996 ft | 459 kts | 251° |
| 2026-05-03 20:48 | 53.34991 | 28.64761 | 35988 ft | 462 kts | 250° |
| 2026-05-03 20:49 | 53.32614 | 28.54691 | 35998 ft | 464 kts | 251° |
| 2026-05-03 20:49 | 53.30282 | 28.44818 | 35977 ft | 454 kts | 251° |
| 2026-05-03 20:50 | 53.27919 | 28.34873 | 36000 ft | 465 kts | 251° |
| 2026-05-03 20:50 | 53.25548 | 28.24936 | 35980 ft | 458 kts | 251° |
| 2026-05-03 20:51 | 53.23183 | 28.14940 | 35992 ft | 467 kts | 252° |
| 2026-05-03 20:51 | 53.20810 | 28.04742 | 35993 ft | 474 kts | 251° |
| 2026-05-03 20:52 | 53.18379 | 27.94610 | 35993 ft | 472 kts | 251° |
| 2026-05-03 20:52 | 53.15922 | 27.84489 | 35992 ft | 471 kts | 250° |
| 2026-05-03 20:53 | 53.13449 | 27.74356 | 35992 ft | 472 kts | 251° |
| 2026-05-03 20:53 | 53.10986 | 27.64256 | 35991 ft | 471 kts | 251° |
| 2026-05-03 20:54 | 53.08514 | 27.54157 | 35992 ft | 472 kts | 250° |
| 2026-05-03 20:54 | 53.06064 | 27.44211 | 35994 ft | 454 kts | 249° |
| 2026-05-03 20:54 | 53.04879 | 27.39423 | 35991 ft | 444 kts | 249° |
| 2026-05-03 20:55 | 53.02552 | 27.30053 | 35991 ft | 435 kts | 249° |
| 2026-05-03 20:55 | 53.00236 | 27.20769 | 35992 ft | 436 kts | 249° |
| 2026-05-03 20:56 | 52.97927 | 27.11462 | 35993 ft | 436 kts | 250° |
| 2026-05-03 20:56 | 52.95644 | 27.02139 | 35994 ft | 436 kts | 250° |
| 2026-05-03 20:57 | 52.93337 | 26.92821 | 35994 ft | 437 kts | 250° |
| 2026-05-03 20:57 | 52.91013 | 26.83518 | 35994 ft | 437 kts | 249° |
| 2026-05-03 20:58 | 52.88676 | 26.74220 | 35994 ft | 438 kts | 249° |
| 2026-05-03 20:58 | 52.86324 | 26.64911 | 35994 ft | 438 kts | 249° |
| 2026-05-03 20:59 | 52.83963 | 26.55613 | 35994 ft | 439 kts | 249° |
| 2026-05-03 20:59 | 52.81593 | 26.46322 | 35994 ft | 439 kts | 249° |
| 2026-05-03 21:00 | 52.79612 | 26.38590 | 35994 ft | 440 kts | 249° |
| 2026-05-03 21:00 | 52.76816 | 26.27717 | 35994 ft | 440 kts | 249° |
| 2026-05-03 21:01 | 52.74410 | 26.18406 | 35994 ft | 441 kts | 249° |
| 2026-05-03 21:01 | 52.72010 | 26.09155 | 35994 ft | 442 kts | 249° |
| 2026-05-03 21:02 | 52.69566 | 25.99772 | 35994 ft | 443 kts | 249° |
| 2026-05-03 21:02 | 52.67124 | 25.90436 | 35994 ft | 444 kts | 249° |
| 2026-05-03 21:03 | 52.64685 | 25.81151 | 35994 ft | 445 kts | 249° |
| 2026-05-03 21:03 | 52.62195 | 25.71708 | 35994 ft | 450 kts | 250° |
| 2026-05-03 21:04 | 52.59685 | 25.62228 | 36000 ft | 452 kts | 248° |
| 2026-05-03 21:04 | 52.57220 | 25.52957 | 35994 ft | 440 kts | 248° |
| 2026-05-03 21:05 | 52.54792 | 25.43835 | 35994 ft | 433 kts | 248° |
| 2026-05-03 21:05 | 52.52394 | 25.34747 | 35994 ft | 434 kts | 248° |
| 2026-05-03 21:06 | 52.49951 | 25.25668 | 35994 ft | 435 kts | 248° |
| 2026-05-03 21:06 | 52.47494 | 25.16618 | 35994 ft | 434 kts | 248° |
| 2026-05-03 21:07 | 52.45027 | 25.07576 | 35994 ft | 434 kts | 247° |
| 2026-05-03 21:07 | 52.42555 | 24.98535 | 35994 ft | 434 kts | 247° |
| 2026-05-03 21:08 | 52.40254 | 24.89396 | 35994 ft | 434 kts | 251° |
| 2026-05-03 21:08 | 52.38122 | 24.80156 | 35993 ft | 433 kts | 251° |
| 2026-05-03 21:09 | 52.35965 | 24.70944 | 35994 ft | 434 kts | 250° |
| 2026-05-03 21:09 | 52.33790 | 24.61737 | 35994 ft | 434 kts | 250° |
| 2026-05-03 21:10 | 52.31657 | 24.52519 | 35994 ft | 434 kts | 251° |
| 2026-05-03 21:10 | 52.29499 | 24.43310 | 35994 ft | 434 kts | 250° |
| 2026-05-03 21:11 | 52.27309 | 24.34143 | 35992 ft | 433 kts | 246° |
| 2026-05-03 21:11 | 52.25090 | 24.24944 | 35995 ft | 438 kts | 248° |
| 2026-05-03 21:12 | 52.22865 | 24.15706 | 35991 ft | 435 kts | 249° |
| 2026-05-03 21:12 | 52.21614 | 24.06060 | 35994 ft | 440 kts | 263° |
| 2026-05-03 21:13 | 52.21577 | 23.96003 | 35994 ft | 445 kts | 269° |
| 2026-05-03 21:13 | 52.21818 | 23.85940 | 35993 ft | 443 kts | 269° |
| 2026-05-03 21:14 | 52.22014 | 23.75885 | 35993 ft | 443 kts | 269° |
| 2026-05-03 21:14 | 52.22187 | 23.65871 | 35994 ft | 441 kts | 269° |
| 2026-05-03 21:15 | 52.22350 | 23.55870 | 35993 ft | 441 kts | 269° |
| 2026-05-03 21:15 | 52.22125 | 23.50975 | 35980 ft | 438 kts | 255° |
| 2026-05-03 21:15 | 52.21095 | 23.46277 | 35991 ft | 436 kts | 240° |
| 2026-05-03 21:16 | 52.17855 | 23.38002 | 35995 ft | 435 kts | 232° |
| 2026-05-03 21:16 | 52.14191 | 23.30194 | 35992 ft | 433 kts | 231° |
| 2026-05-03 21:17 | 52.11138 | 23.23724 | 35992 ft | 433 kts | 231° |
| 2026-05-03 21:17 | 52.06862 | 23.14638 | 35990 ft | 433 kts | 231° |
| 2026-05-03 21:18 | 52.03203 | 23.06862 | 35990 ft | 433 kts | 231° |
| 2026-05-03 21:18 | 51.99535 | 22.99077 | 35990 ft | 436 kts | 231° |
| 2026-05-03 21:19 | 51.95877 | 22.91245 | 35988 ft | 434 kts | 232° |
| 2026-05-03 21:19 | 51.92253 | 22.83470 | 35986 ft | 432 kts | 231° |
| 2026-05-03 21:20 | 51.88603 | 22.75689 | 35986 ft | 435 kts | 231° |
| 2026-05-03 21:20 | 51.84935 | 22.67910 | 35981 ft | 434 kts | 231° |
| 2026-05-03 21:21 | 51.81254 | 22.60134 | 35981 ft | 437 kts | 230° |
| 2026-05-03 21:21 | 51.77540 | 22.52320 | 35980 ft | 439 kts | 230° |
| 2026-05-03 21:22 | 51.73809 | 22.44493 | 35970 ft | 441 kts | 230° |
| 2026-05-03 21:22 | 51.70064 | 22.36662 | 35965 ft | 441 kts | 230° |
| 2026-05-03 21:23 | 51.66315 | 22.28848 | 35967 ft | 440 kts | 230° |
| 2026-05-03 21:23 | 51.62567 | 22.21061 | 35965 ft | 440 kts | 230° |
| 2026-05-03 21:24 | 51.58808 | 22.13272 | 35964 ft | 441 kts | 230° |
| 2026-05-03 21:24 | 51.55054 | 22.05517 | 35997 ft | 438 kts | 230° |
| 2026-05-03 21:25 | 51.51306 | 21.97799 | 36016 ft | 439 kts | 229° |
| 2026-05-03 21:25 | 51.47550 | 21.90086 | 36026 ft | 438 kts | 229° |
| 2026-05-03 21:26 | 51.43788 | 21.82383 | 36030 ft | 438 kts | 229° |
| 2026-05-03 21:26 | 51.40061 | 21.74730 | 36026 ft | 439 kts | 230° |
| 2026-05-03 21:27 | 51.36303 | 21.67035 | 36025 ft | 439 kts | 229° |
| 2026-05-03 21:27 | 51.32521 | 21.59370 | 36027 ft | 439 kts | 229° |
| 2026-05-03 21:28 | 51.28731 | 21.51730 | 36028 ft | 439 kts | 229° |
| 2026-05-03 21:28 | 51.24937 | 21.44103 | 36028 ft | 439 kts | 229° |
| 2026-05-03 21:29 | 51.21144 | 21.36487 | 36028 ft | 439 kts | 229° |
| 2026-05-03 21:29 | 51.17347 | 21.28868 | 36023 ft | 439 kts | 229° |
| 2026-05-03 21:30 | 51.13544 | 21.21268 | 36025 ft | 439 kts | 229° |
| 2026-05-03 21:30 | 51.09735 | 21.13681 | 36032 ft | 438 kts | 229° |
| 2026-05-03 21:31 | 51.05924 | 21.06111 | 36028 ft | 439 kts | 229° |
| 2026-05-03 21:31 | 51.02752 | 20.99827 | 36019 ft | 439 kts | 229° |
| 2026-05-03 21:32 | 50.98940 | 20.92255 | 36016 ft | 439 kts | 229° |
| 2026-05-03 21:32 | 50.95146 | 20.84677 | 36019 ft | 439 kts | 229° |
| 2026-05-03 21:33 | 50.91327 | 20.77106 | 36007 ft | 439 kts | 229° |
| 2026-05-03 21:33 | 50.87505 | 20.69567 | 36001 ft | 440 kts | 229° |
| 2026-05-03 21:34 | 50.83674 | 20.62001 | 35990 ft | 441 kts | 229° |
| 2026-05-03 21:34 | 50.79838 | 20.54448 | 35972 ft | 440 kts | 229° |
| 2026-05-03 21:35 | 50.75984 | 20.46935 | 35987 ft | 440 kts | 230° |
| 2026-05-03 21:35 | 50.72153 | 20.39505 | 36043 ft | 433 kts | 232° |
| 2026-05-03 21:36 | 50.68375 | 20.32201 | 36068 ft | 429 kts | 231° |
| 2026-05-03 21:36 | 50.64596 | 20.24895 | 36080 ft | 430 kts | 232° |
| 2026-05-03 21:37 | 50.61054 | 20.17314 | 36082 ft | 430 kts | 235° |
| 2026-05-03 21:37 | 50.57540 | 20.09700 | 36083 ft | 430 kts | 234° |
| 2026-05-03 21:38 | 50.54001 | 20.02119 | 36082 ft | 430 kts | 233° |
| 2026-05-03 21:38 | 50.50457 | 19.94551 | 36082 ft | 430 kts | 233° |
| 2026-05-03 21:39 | 50.46911 | 19.86999 | 36081 ft | 430 kts | 233° |
| 2026-05-03 21:39 | 50.43355 | 19.79446 | 36081 ft | 430 kts | 232° |
| 2026-05-03 21:40 | 50.39797 | 19.71894 | 36081 ft | 431 kts | 233° |
| 2026-05-03 21:40 | 50.36267 | 19.64318 | 36081 ft | 431 kts | 233° |
| 2026-05-03 21:41 | 50.32740 | 19.56811 | 36081 ft | 431 kts | 232° |
| 2026-05-03 21:41 | 50.29182 | 19.49278 | 36082 ft | 431 kts | 232° |
| 2026-05-03 21:42 | 50.25624 | 19.41778 | 36081 ft | 431 kts | 232° |
| 2026-05-03 21:42 | 50.22045 | 19.34254 | 36081 ft | 431 kts | 233° |
| 2026-05-03 21:43 | 50.18488 | 19.26731 | 36081 ft | 431 kts | 232° |
| 2026-05-03 21:43 | 50.14905 | 19.19244 | 36080 ft | 430 kts | 233° |
| 2026-05-03 21:44 | 50.11363 | 19.11893 | 36080 ft | 430 kts | 232° |
| 2026-05-03 21:44 | 50.07766 | 19.04454 | 36079 ft | 430 kts | 231° |
| 2026-05-03 21:45 | 50.04169 | 18.97030 | 36102 ft | 428 kts | 233° |
| 2026-05-03 21:45 | 50.00603 | 18.89652 | 36108 ft | 426 kts | 233° |
| 2026-05-03 21:46 | 49.97012 | 18.82288 | 36108 ft | 430 kts | 235° |
| 2026-05-03 21:46 | 49.93372 | 18.74874 | 36109 ft | 432 kts | 234° |
| 2026-05-03 21:47 | 49.89719 | 18.67464 | 36104 ft | 431 kts | 234° |
| 2026-05-03 21:47 | 49.86099 | 18.60136 | 36103 ft | 430 kts | 232° |
| 2026-05-03 21:48 | 49.82475 | 18.52791 | 36097 ft | 429 kts | 230° |
| 2026-05-03 21:48 | 49.78797 | 18.45364 | 36086 ft | 442 kts | 229° |
| 2026-05-03 21:49 | 49.75000 | 18.37723 | 36119 ft | 451 kts | 230° |
| 2026-05-03 21:49 | 49.71217 | 18.30130 | 36100 ft | 440 kts | 230° |
| 2026-05-03 21:50 | 49.67500 | 18.22691 | 36088 ft | 436 kts | 229° |
| 2026-05-03 21:50 | 49.63766 | 18.15232 | 36083 ft | 436 kts | 229° |
| 2026-05-03 21:51 | 49.60101 | 18.07830 | 35483 ft | 437 kts | 229° |
| 2026-05-03 21:51 | 49.58247 | 18.04107 | 34749 ft | 438 kts | 230° |
| 2026-05-03 21:51 | 49.56364 | 18.00339 | 33991 ft | 438 kts | 230° |
| 2026-05-03 21:52 | 49.54501 | 17.96621 | 33229 ft | 439 kts | 230° |
| 2026-05-03 21:52 | 49.52633 | 17.92902 | 32447 ft | 440 kts | 230° |
| 2026-05-03 21:52 | 49.50766 | 17.89152 | 31642 ft | 441 kts | 230° |
| 2026-05-03 21:52 | 49.48901 | 17.85423 | 30914 ft | 440 kts | 230° |
| 2026-05-03 21:53 | 49.47037 | 17.81722 | 30313 ft | 435 kts | 230° |
| 2026-05-03 21:53 | 49.45181 | 17.78053 | 29699 ft | 433 kts | 229° |
| 2026-05-03 21:53 | 49.43370 | 17.74484 | 29144 ft | 427 kts | 230° |
| 2026-05-03 21:53 | 49.41527 | 17.70863 | 28579 ft | 421 kts | 230° |
| 2026-05-03 21:54 | 49.39740 | 17.67361 | 27947 ft | 429 kts | 233° |
| 2026-05-03 21:54 | 49.37882 | 17.63719 | 27418 ft | 431 kts | 230° |
| 2026-05-03 21:54 | 49.36047 | 17.60129 | 26866 ft | 424 kts | 230° |
| 2026-05-03 21:54 | 49.34237 | 17.56593 | 26271 ft | 423 kts | 233° |
| 2026-05-03 21:55 | 49.32406 | 17.53014 | 25634 ft | 428 kts | 233° |
| 2026-05-03 21:55 | 49.30481 | 17.49492 | 25055 ft | 434 kts | 230° |
| 2026-05-03 21:55 | 49.28461 | 17.46033 | 24459 ft | 436 kts | 228° |
| 2026-05-03 21:55 | 49.26426 | 17.42622 | 23915 ft | 430 kts | 224° |
| 2026-05-03 21:56 | 49.24418 | 17.39251 | 23348 ft | 426 kts | 224° |
| 2026-05-03 21:56 | 49.22436 | 17.35916 | 22783 ft | 422 kts | 224° |
| 2026-05-03 21:56 | 49.20477 | 17.32615 | 22222 ft | 418 kts | 224° |
| 2026-05-03 21:56 | 49.18529 | 17.29330 | 21658 ft | 414 kts | 225° |
| 2026-05-03 21:57 | 49.16579 | 17.26042 | 21093 ft | 411 kts | 225° |
| 2026-05-03 21:57 | 49.14666 | 17.22815 | 20536 ft | 408 kts | 225° |
| 2026-05-03 21:57 | 49.12767 | 17.19615 | 19971 ft | 405 kts | 225° |
| 2026-05-03 21:57 | 49.10883 | 17.16440 | 19422 ft | 402 kts | 225° |
| 2026-05-03 21:58 | 49.09039 | 17.13330 | 18881 ft | 399 kts | 225° |
| 2026-05-03 21:58 | 49.07194 | 17.10181 | 18327 ft | 396 kts | 225° |
| 2026-05-03 21:58 | 49.05360 | 17.07063 | 17733 ft | 394 kts | 225° |
| 2026-05-03 21:58 | 49.03529 | 17.03962 | 17183 ft | 391 kts | 225° |
| 2026-05-03 21:59 | 49.01709 | 17.00886 | 16656 ft | 388 kts | 225° |
| 2026-05-03 21:59 | 48.99904 | 16.97836 | 16135 ft | 385 kts | 225° |
| 2026-05-03 21:59 | 48.98128 | 16.94813 | 15622 ft | 381 kts | 225° |
| 2026-05-03 21:59 | 48.96360 | 16.91826 | 15111 ft | 378 kts | 225° |
| 2026-05-03 22:00 | 48.94605 | 16.88876 | 14605 ft | 374 kts | 225° |
| 2026-05-03 22:00 | 48.92886 | 16.85998 | 14108 ft | 371 kts | 224° |
| 2026-05-03 22:00 | 48.91156 | 16.83110 | 13609 ft | 367 kts | 224° |
| 2026-05-03 22:00 | 48.89446 | 16.80261 | 13114 ft | 359 kts | 224° |
| 2026-05-03 22:01 | 48.87785 | 16.77499 | 12642 ft | 348 kts | 224° |
| 2026-05-03 22:01 | 48.86168 | 16.74813 | 12191 ft | 343 kts | 224° |
| 2026-05-03 22:01 | 48.84561 | 16.72147 | 11748 ft | 341 kts | 224° |
| 2026-05-03 22:01 | 48.82966 | 16.69502 | 11372 ft | 338 kts | 224° |
| 2026-05-03 22:02 | 48.81402 | 16.66910 | 11185 ft | 323 kts | 224° |
| 2026-05-03 22:02 | 48.79739 | 16.64802 | 11005 ft | 302 kts | 206° |
| 2026-05-03 22:02 | 48.77818 | 16.63864 | 10889 ft | 284 kts | 184° |
| 2026-05-03 22:02 | 48.75912 | 16.63834 | 10835 ft | 272 kts | 177° |
| 2026-05-03 22:03 | 48.74045 | 16.63986 | 10640 ft | 268 kts | 172° |
| 2026-05-03 22:03 | 48.72191 | 16.64361 | 10305 ft | 268 kts | 169° |
| 2026-05-03 22:03 | 48.70357 | 16.64855 | 9953 ft | 267 kts | 167° |
| 2026-05-03 22:03 | 48.68548 | 16.65417 | 9600 ft | 262 kts | 166° |
| 2026-05-03 22:04 | 48.66774 | 16.65982 | 9248 ft | 258 kts | 166° |
| 2026-05-03 22:04 | 48.65034 | 16.66542 | 8897 ft | 254 kts | 166° |
| 2026-05-03 22:04 | 48.63319 | 16.67098 | 8546 ft | 250 kts | 166° |
| 2026-05-03 22:04 | 48.61629 | 16.67648 | 8194 ft | 247 kts | 166° |
| 2026-05-03 22:05 | 48.59983 | 16.68185 | 7847 ft | 243 kts | 166° |
| 2026-05-03 22:05 | 48.58311 | 16.68480 | 7469 ft | 243 kts | 181° |
| 2026-05-03 22:05 | 48.56668 | 16.67751 | 6957 ft | 249 kts | 202° |
| 2026-05-03 22:05 | 48.55155 | 16.66461 | 6510 ft | 251 kts | 209° |
| 2026-05-03 22:06 | 48.53705 | 16.64988 | 6044 ft | 253 kts | 212° |
| 2026-05-03 22:06 | 48.52269 | 16.63435 | 5805 ft | 251 kts | 212° |
| 2026-05-03 22:06 | 48.50856 | 16.61903 | 5798 ft | 249 kts | 212° |
| 2026-05-03 22:06 | 48.49451 | 16.60385 | 5797 ft | 249 kts | 212° |
| 2026-05-03 22:07 | 48.48041 | 16.58866 | 5797 ft | 251 kts | 212° |
| 2026-05-03 22:07 | 48.46613 | 16.57330 | 5798 ft | 253 kts | 212° |
| 2026-05-03 22:07 | 48.45205 | 16.55820 | 5796 ft | 248 kts | 212° |
| 2026-05-03 22:07 | 48.43841 | 16.54357 | 5787 ft | 234 kts | 212° |
| 2026-05-03 22:08 | 48.42545 | 16.52970 | 5751 ft | 224 kts | 212° |
| 2026-05-03 22:08 | 48.41303 | 16.51642 | 5660 ft | 213 kts | 211° |
| 2026-05-03 22:08 | 48.40120 | 16.50377 | 5549 ft | 203 kts | 211° |
| 2026-05-03 22:08 | 48.39003 | 16.49183 | 5427 ft | 192 kts | 211° |
| 2026-05-03 22:09 | 48.37912 | 16.48126 | 5285 ft | 184 kts | 198° |
| 2026-05-03 22:09 | 48.36685 | 16.47996 | 5204 ft | 171 kts | 173° |
| 2026-05-03 22:09 | 48.35537 | 16.48243 | 5122 ft | 162 kts | 169° |
| 2026-05-03 22:10 | 48.33377 | 16.48868 | 4962 ft | 157 kts | 166° |
| 2026-05-03 22:10 | 48.32335 | 16.49245 | 4701 ft | 148 kts | 165° |
| 2026-05-03 22:10 | 48.31369 | 16.49620 | 4478 ft | 139 kts | 164° |
| 2026-05-03 22:10 | 48.30463 | 16.49985 | 4299 ft | 134 kts | 163° |
| 2026-05-03 22:11 | 48.29568 | 16.50354 | 4129 ft | 131 kts | 163° |
| 2026-05-03 22:11 | 48.28687 | 16.50722 | 3962 ft | 131 kts | 163° |
| 2026-05-03 22:11 | 48.27807 | 16.51092 | 3790 ft | 131 kts | 163° |
| 2026-05-03 22:11 | 48.26929 | 16.51464 | 3616 ft | 131 kts | 163° |
| 2026-05-03 22:12 | 48.26055 | 16.51835 | 3443 ft | 131 kts | 162° |
| 2026-05-03 22:12 | 48.25179 | 16.52208 | 3269 ft | 130 kts | 162° |
| 2026-05-03 22:12 | 48.24318 | 16.52574 | 3098 ft | 130 kts | 162° |
| 2026-05-03 22:12 | 48.23444 | 16.52946 | 2925 ft | 130 kts | 162° |
| 2026-05-03 22:13 | 48.22574 | 16.53317 | 2752 ft | 130 kts | 162° |
| 2026-05-03 22:13 | 48.21705 | 16.53687 | 2579 ft | 130 kts | 162° |
| 2026-05-03 22:13 | 48.20833 | 16.54057 | 2406 ft | 129 kts | 162° |
| 2026-05-03 22:13 | 48.19972 | 16.54424 | 2235 ft | 128 kts | 162° |
| 2026-05-03 22:14 | 48.19114 | 16.54788 | 2065 ft | 128 kts | 162° |
| 2026-05-03 22:14 | 48.18266 | 16.55149 | 1895 ft | 125 kts | 163° |
| 2026-05-03 22:14 | 48.17451 | 16.55496 | 1726 ft | 122 kts | 163° |
| 2026-05-03 22:14 | 48.16629 | 16.55845 | 1570 ft | 121 kts | 163° |
| 2026-05-03 22:15 | 48.15943 | 16.56136 | 1425 ft | 123 kts | 163° |
| 2026-05-03 22:15 | 48.15229 | 16.56441 | 1255 ft | 126 kts | 163° |
| 2026-05-03 22:15 | 48.14405 | 16.56784 | 1122 ft | 121 kts | 163° |
| 2026-05-03 22:16 | 48.13597 | 16.57139 | 959 ft | 119 kts | 162° |
| 2026-05-03 22:16 | 48.12811 | 16.57479 | 814 ft | 119 kts | 163° |
| 2026-05-03 22:16 | 48.12006 | 16.57807 | 665 ft | 118 kts | 163° |
| 2026-05-03 22:16 | 48.11269 | 16.58126 | 608 ft | 92 kts | 164° |
| 2026-05-03 22:17 | 48.10869 | 16.58291 | 608 ft | 27 kts | 161° |
| 2026-05-03 22:17 | 48.10742 | 16.58289 | 608 ft | 7 kts | 201° |
| 2026-05-03 22:17 | 48.10708 | 16.58276 | 608 ft | 4 kts | 192° |
| 2026-05-03 22:17 | 48.10675 | 16.58265 | 608 ft | 6 kts | 192° |
| 2026-05-03 22:18 | 48.10628 | 16.58250 | 608 ft | 7 kts | 192° |
| 2026-05-03 22:18 | 48.10576 | 16.58232 | 608 ft | 8 kts | 199° |
| 2026-05-03 22:18 | 48.10552 | 16.58194 | 608 ft | 8 kts | 255° |
| 2026-05-03 22:18 | 48.10585 | 16.58126 | 608 ft | 10 kts | 346° |
| 2026-05-03 22:19 | 48.10656 | 16.58098 | 608 ft | 11 kts | 343° |
| 2026-05-03 22:19 | 48.10737 | 16.58063 | 608 ft | 13 kts | 344° |
| 2026-05-03 22:19 | 48.10826 | 16.58026 | 608 ft | 13 kts | 344° |
| 2026-05-03 22:19 | 48.10928 | 16.57968 | 608 ft | 12 kts | 326° |
| 2026-05-03 22:20 | 48.10970 | 16.57906 | 608 ft | 13 kts | 303° |
| 2026-05-03 22:20 | 48.11008 | 16.57803 | 608 ft | 9 kts | 326° |
| 2026-05-03 22:20 | 48.11073 | 16.57782 | 608 ft | 11 kts | 355° |
| 2026-05-03 22:20 | 48.11138 | 16.57737 | 608 ft | 11 kts | 317° |
| 2026-05-03 22:21 | 48.11183 | 16.57635 | 608 ft | 12 kts | 295° |
| 2026-05-03 22:21 | 48.11223 | 16.57511 | 608 ft | 14 kts | 295° |
| 2026-05-03 22:21 | 48.11267 | 16.57374 | 608 ft | 15 kts | 295° |
| 2026-05-03 22:21 | 48.11316 | 16.57226 | 608 ft | 16 kts | 296° |
| 2026-05-03 22:22 | 48.11367 | 16.57074 | 608 ft | 17 kts | 296° |
| 2026-05-03 22:22 | 48.11412 | 16.56937 | 608 ft | 11 kts | 297° |
| 2026-05-03 22:22 | 48.11462 | 16.56881 | 608 ft | 9 kts | 3° |
| 2026-05-03 22:22 | 48.11513 | 16.56915 | 608 ft | 7 kts | 27° |
| 2026-05-03 22:23 | 48.11554 | 16.56933 | 608 ft | 6 kts | 1° |
| 2026-05-03 22:23 | 48.11592 | 16.56927 | 608 ft | 6 kts | 5° |
| 2026-05-03 22:23 | 48.11627 | 16.56956 | 608 ft | 5 kts | 28° |
| 2026-05-03 22:23 | 48.11647 | 16.56964 | 608 ft | 1 kts | 16° |
| 2026-05-03 22:24 | 48.11655 | 16.56968 | 608 ft | 2 kts | 21° |
| 2026-05-03 22:24 | 48.11662 | 16.56973 | 608 ft | 0 kts | 23° |